createdAt,value
2024-01-15T00:00:51.821Z,22.30
2024-01-15T00:01:51.793Z,21.47
2024-01-15T00:02:51.749Z,21.49
2024-01-15T00:03:51.822Z,20.13
2024-01-15T00:04:51.752Z,22.15
2024-01-15T00:05:51.740Z,20.98
2024-01-15T00:06:51.846Z,19.62
2024-01-15T00:07:51.686Z,20.42
2024-01-15T00:08:51.690Z,20.69
2024-01-15T00:09:51.735Z,20.72
2024-01-15T00:10:51.662Z,21.02
2024-01-15T00:11:51.667Z,20.79
2024-01-15T00:12:51.702Z,19.85
2024-01-15T00:13:51.620Z,20.66
2024-01-15T00:14:51.621Z,20.39
2024-01-15T00:15:51.666Z,21.25
2024-01-15T00:16:51.604Z,20.58
2024-01-15T00:17:51.636Z,20.14
2024-01-15T00:18:51.654Z,19.86
2024-01-15T00:19:51.658Z,19.36
2024-01-15T00:20:51.568Z,20.41
2024-01-15T00:21:51.557Z,20.80
2024-01-15T00:22:51.550Z,20.52
2024-01-15T00:23:51.520Z,20.29
2024-01-15T00:24:51.573Z,19.53
2024-01-15T00:25:51.519Z,19.27
2024-01-15T00:26:51.509Z,20.32
2024-01-15T00:27:51.531Z,19.86
2024-01-15T00:28:51.477Z,18.25
2024-01-15T00:29:51.505Z,19.48
2024-01-15T00:30:51.497Z,19.70
2024-01-15T00:31:51.463Z,19.48
2024-01-15T00:32:51.561Z,18.22
2024-01-15T00:33:51.545Z,18.88
2024-01-15T00:34:51.512Z,17.99
2024-01-15T00:35:51.407Z,21.19
2024-01-15T00:36:51.531Z,18.02
2024-01-15T00:37:51.398Z,18.64
2024-01-15T00:38:51.390Z,20.52
2024-01-15T00:39:51.458Z,20.04
2024-01-15T00:40:51.373Z,18.94
2024-01-15T00:41:51.352Z,20.20
2024-01-15T00:42:51.392Z,20.51
2024-01-15T00:43:51.344Z,19.03
2024-01-15T00:44:51.342Z,18.00
2024-01-15T00:45:51.365Z,19.30
2024-01-15T00:46:51.304Z,18.96
2024-01-15T00:47:51.385Z,20.68
2024-01-15T00:48:51.393Z,18.40
2024-01-15T00:49:51.325Z,19.17
2024-01-15T00:50:51.264Z,20.29
2024-01-15T00:51:51.260Z,19.63
2024-01-15T00:52:51.267Z,19.70
2024-01-15T00:53:51.264Z,19.97
2024-01-15T00:54:51.292Z,18.77
2024-01-15T00:55:51.208Z,19.65
2024-01-15T00:56:51.225Z,21.31
2024-01-15T00:57:51.223Z,19.86
2024-01-15T00:58:51.186Z,18.59
2024-01-15T00:59:51.171Z,19.12
2024-01-15T01:00:51.246Z,19.84
2024-01-15T01:01:51.174Z,18.73
2024-01-15T01:02:51.173Z,19.79
2024-01-15T01:03:51.247Z,20.49
2024-01-15T01:04:51.129Z,19.84
2024-01-15T01:05:51.233Z,19.22
2024-01-15T01:06:51.257Z,18.13
2024-01-15T01:07:51.134Z,18.69
2024-01-15T01:08:51.101Z,18.39
2024-01-15T01:09:51.125Z,19.30
2024-01-15T01:10:51.074Z,18.15
2024-01-15T01:11:51.101Z,18.75
2024-01-15T01:12:51.111Z,18.47
2024-01-15T01:13:51.030Z,17.37
2024-01-15T01:14:51.020Z,17.83
2024-01-15T01:15:51.070Z,17.58
2024-01-15T01:16:51.015Z,17.57
2024-01-15T01:17:51.142Z,17.76
2024-01-15T01:18:51.095Z,17.70
2024-01-15T01:19:51.245Z,18.63
2024-01-15T01:20:50.971Z,18.00
2024-01-15T01:21:50.987Z,16.03
2024-01-15T01:22:50.947Z,17.64
2024-01-15T01:23:50.933Z,17.58
2024-01-15T01:24:51.044Z,16.86
2024-01-15T01:25:50.985Z,15.82
2024-01-15T01:26:50.921Z,17.18
2024-01-15T01:27:50.890Z,16.89
2024-01-15T01:28:50.887Z,17.51
2024-01-15T01:29:50.888Z,17.44
2024-01-15T01:30:50.961Z,16.01
2024-01-15T01:31:50.871Z,16.53
2024-01-15T01:32:50.866Z,16.67
2024-01-15T01:33:50.908Z,16.03
2024-01-15T01:34:50.949Z,16.22
2024-01-15T01:35:50.837Z,15.29
2024-01-15T01:36:50.966Z,16.28
2024-01-15T01:37:50.802Z,16.32
2024-01-15T01:38:50.799Z,16.05
2024-01-15T01:39:50.837Z,16.82
2024-01-15T01:40:50.781Z,16.30
2024-01-15T01:41:50.890Z,15.96
2024-01-15T01:42:50.864Z,15.09
2024-01-15T01:43:50.736Z,15.90
2024-01-15T01:44:50.757Z,15.72
2024-01-15T01:45:50.768Z,17.32
2024-01-15T01:46:50.726Z,16.17
2024-01-15T01:47:50.813Z,16.04
2024-01-15T01:48:50.816Z,16.00
2024-01-15T01:49:50.771Z,15.01
2024-01-15T01:50:50.678Z,15.99
2024-01-15T01:51:50.718Z,15.76
2024-01-15T01:52:50.656Z,15.79
2024-01-15T01:53:50.651Z,14.62
2024-01-15T01:54:50.720Z,15.43
2024-01-15T01:55:50.613Z,14.90
2024-01-15T01:56:50.630Z,15.85
2024-01-15T01:57:50.768Z,15.33
2024-01-15T01:58:50.613Z,15.03
2024-01-15T01:59:50.580Z,14.34
2024-01-15T02:00:50.852Z,14.77
2024-01-15T02:01:50.601Z,14.96
2024-01-15T02:02:50.568Z,14.69
2024-01-15T02:03:50.617Z,14.96
2024-01-15T02:04:50.583Z,14.28
2024-01-15T02:05:50.546Z,15.00
2024-01-15T02:06:50.634Z,14.50
2024-01-15T02:07:50.531Z,14.72
2024-01-15T02:08:50.494Z,15.43
2024-01-15T02:09:50.595Z,14.67
2024-01-15T02:10:50.475Z,14.98
2024-01-15T02:11:50.478Z,13.86
2024-01-15T02:12:50.481Z,15.29
2024-01-15T02:13:50.474Z,14.52
2024-01-15T02:14:50.446Z,14.06
2024-01-15T02:15:50.491Z,14.78
2024-01-15T02:16:50.425Z,15.20
2024-01-15T02:17:50.424Z,14.74
2024-01-15T02:18:50.448Z,13.75
2024-01-15T02:19:50.462Z,15.30
2024-01-15T02:20:50.365Z,14.60
2024-01-15T02:21:50.437Z,13.68
2024-01-15T02:22:50.350Z,13.57
2024-01-15T02:23:50.355Z,14.59
2024-01-15T02:24:50.352Z,14.67
2024-01-15T02:25:50.340Z,13.58
2024-01-15T02:26:50.446Z,13.03
2024-01-15T02:27:50.311Z,14.32
2024-01-15T02:28:50.306Z,14.01
2024-01-15T02:29:50.284Z,13.17
2024-01-15T02:30:50.730Z,13.21
2024-01-15T02:31:50.345Z,13.50
2024-01-15T02:32:50.330Z,14.05
2024-01-15T02:33:50.393Z,13.17
2024-01-15T02:34:50.354Z,13.33
2024-01-15T02:35:50.240Z,13.76
2024-01-15T02:36:50.276Z,14.69
2024-01-15T02:37:50.198Z,12.96
2024-01-15T02:38:50.209Z,13.13
2024-01-15T02:39:50.224Z,13.38
2024-01-15T02:40:50.203Z,13.32
2024-01-15T02:41:50.158Z,13.45
2024-01-15T02:42:50.214Z,13.60
2024-01-15T02:43:50.145Z,13.45
2024-01-15T02:44:50.143Z,13.71
2024-01-15T02:45:50.199Z,12.76
2024-01-15T02:46:50.109Z,12.68
2024-01-15T02:47:50.147Z,13.11
2024-01-15T02:48:50.193Z,13.93
2024-01-15T02:49:50.266Z,13.45
2024-01-15T02:50:50.098Z,12.84
2024-01-15T02:51:50.135Z,12.94
2024-01-15T02:52:50.082Z,13.53
2024-01-15T02:53:50.072Z,11.57
2024-01-15T02:54:50.128Z,13.83
2024-01-15T02:55:50.025Z,13.76
2024-01-15T02:56:50.038Z,12.99
2024-01-15T02:57:50.065Z,13.82
2024-01-15T02:58:49.999Z,13.31
2024-01-15T02:59:49.993Z,13.03
2024-01-15T03:00:49.996Z,11.90
2024-01-15T03:01:50.004Z,12.57
2024-01-15T03:02:49.975Z,13.34
2024-01-15T03:03:50.015Z,11.59
2024-01-15T03:04:49.932Z,12.69
2024-01-15T03:05:49.951Z,12.38
2024-01-15T03:06:49.991Z,11.56
2024-01-15T03:07:49.922Z,12.66
2024-01-15T03:08:49.919Z,11.92
2024-01-15T03:09:49.935Z,12.26
2024-01-15T03:10:49.874Z,11.85
2024-01-15T03:11:49.869Z,13.23
2024-01-15T03:12:49.957Z,12.89
2024-01-15T03:13:49.850Z,12.43
2024-01-15T03:14:49.827Z,12.71
2024-01-15T03:15:49.936Z,12.56
2024-01-15T03:16:49.809Z,12.04
2024-01-15T03:17:49.890Z,12.27
2024-01-15T03:18:49.863Z,13.67
2024-01-15T03:19:49.822Z,12.38
2024-01-15T03:20:49.765Z,13.19
2024-01-15T03:21:49.857Z,11.91
2024-01-15T03:22:49.763Z,12.34
2024-01-15T03:23:49.750Z,12.44
2024-01-15T03:24:49.851Z,12.31
2024-01-15T03:25:49.724Z,12.78
2024-01-15T03:26:49.740Z,12.64
2024-01-15T03:27:49.778Z,13.55
2024-01-15T03:28:49.695Z,12.62
2024-01-15T03:29:49.695Z,12.66
2024-01-15T03:30:49.828Z,12.71
2024-01-15T03:31:49.768Z,13.49
2024-01-15T03:32:49.738Z,13.15
2024-01-15T03:33:49.737Z,13.02
2024-01-15T03:34:49.787Z,13.99
2024-01-15T03:35:49.639Z,12.84
2024-01-15T03:36:49.756Z,13.84
2024-01-15T03:37:49.634Z,13.80
2024-01-15T03:38:49.588Z,12.47
2024-01-15T03:39:49.738Z,13.38
2024-01-15T03:40:49.741Z,14.23
2024-01-15T03:41:49.635Z,14.26
2024-01-15T03:42:49.700Z,14.36
2024-01-15T03:43:49.678Z,14.61
2024-01-15T03:44:49.626Z,14.00
2024-01-15T03:45:49.669Z,13.64
2024-01-15T03:46:49.520Z,13.92
2024-01-15T03:47:49.623Z,13.19
2024-01-15T03:48:49.655Z,14.36
2024-01-15T03:49:49.720Z,13.99
2024-01-15T03:50:49.574Z,13.59
2024-01-15T03:51:49.588Z,13.57
2024-01-15T03:52:49.460Z,13.26
2024-01-15T03:53:49.455Z,13.48
2024-01-15T03:54:49.511Z,13.91
2024-01-15T03:55:49.436Z,14.28
2024-01-15T03:56:49.419Z,12.71
2024-01-15T03:57:49.463Z,14.10
2024-01-15T03:58:49.406Z,13.32
2024-01-15T03:59:49.429Z,12.79
2024-01-15T04:00:49.502Z,13.10
2024-01-15T04:01:49.399Z,14.11
2024-01-15T04:02:49.359Z,13.47
2024-01-15T04:03:49.563Z,13.46
2024-01-15T04:04:49.501Z,13.26
2024-01-15T04:05:49.406Z,10.90
2024-01-15T04:06:49.450Z,13.57
2024-01-15T04:07:49.312Z,12.89
2024-01-15T04:08:49.308Z,13.56
2024-01-15T04:09:49.417Z,13.20
2024-01-15T04:10:49.284Z,13.03
2024-01-15T04:11:49.271Z,13.48
2024-01-15T04:12:49.323Z,13.24
2024-01-15T04:13:49.263Z,11.95
2024-01-15T04:14:49.256Z,13.24
2024-01-15T04:15:49.366Z,12.83
2024-01-15T04:16:49.221Z,12.53
2024-01-15T04:17:49.295Z,12.75
2024-01-15T04:18:49.334Z,12.30
2024-01-15T04:19:49.369Z,13.50
2024-01-15T04:20:49.182Z,11.20
2024-01-15T04:21:49.185Z,12.53
2024-01-15T04:22:49.177Z,12.00
2024-01-15T04:23:49.159Z,11.87
2024-01-15T04:24:49.219Z,12.13
2024-01-15T04:25:49.136Z,12.06
2024-01-15T04:26:49.114Z,11.84
2024-01-15T04:27:49.202Z,11.22
2024-01-15T04:28:49.104Z,11.88
2024-01-15T04:29:49.098Z,12.85
2024-01-15T04:30:49.178Z,12.70
2024-01-15T04:31:49.389Z,12.81
2024-01-15T04:32:49.130Z,12.69
2024-01-15T04:33:49.142Z,12.09
2024-01-15T04:34:49.177Z,12.96
2024-01-15T04:35:49.037Z,12.75
2024-01-15T04:36:49.174Z,12.96
2024-01-15T04:37:49.019Z,12.49
2024-01-15T04:38:49.006Z,12.31
2024-01-15T04:39:49.141Z,12.87
2024-01-15T04:40:49.003Z,12.89
2024-01-15T04:41:48.997Z,12.55
2024-01-15T04:42:49.006Z,12.54
2024-01-15T04:43:48.977Z,12.14
2024-01-15T04:44:48.965Z,12.57
2024-01-15T04:45:49.053Z,12.80
2024-01-15T04:46:48.953Z,12.53
2024-01-15T04:47:49.002Z,12.55
2024-01-15T04:48:48.987Z,12.26
2024-01-15T04:49:49.044Z,11.97
2024-01-15T04:50:48.914Z,12.07
2024-01-15T04:51:49.128Z,12.84
2024-01-15T04:52:48.876Z,11.12
2024-01-15T04:53:48.864Z,11.19
2024-01-15T04:54:49.071Z,12.90
2024-01-15T04:55:48.873Z,12.21
2024-01-15T04:56:48.830Z,12.51
2024-01-15T04:57:48.885Z,12.57
2024-01-15T04:58:48.811Z,11.93
2024-01-15T04:59:48.800Z,11.50
2024-01-15T05:00:49.001Z,11.95
2024-01-15T05:01:48.840Z,11.59
2024-01-15T05:02:48.784Z,11.75
2024-01-15T05:03:48.904Z,12.20
2024-01-15T05:04:48.772Z,11.78
2024-01-15T05:05:48.776Z,11.63
2024-01-15T05:06:48.763Z,10.65
2024-01-15T05:07:48.728Z,11.53
2024-01-15T05:08:48.715Z,11.14
2024-01-15T05:09:48.758Z,12.52
2024-01-15T05:10:48.691Z,12.11
2024-01-15T05:11:48.686Z,12.60
2024-01-15T05:12:48.729Z,10.81
2024-01-15T05:13:48.678Z,12.44
2024-01-15T05:14:48.666Z,11.52
2024-01-15T05:15:48.720Z,12.70
2024-01-15T05:16:48.634Z,11.73
2024-01-15T05:17:48.700Z,11.15
2024-01-15T05:18:48.777Z,11.31
2024-01-15T05:19:48.841Z,11.59
2024-01-15T05:20:48.614Z,11.57
2024-01-15T05:21:48.645Z,11.59
2024-01-15T05:22:48.577Z,11.05
2024-01-15T05:23:48.786Z,12.22
2024-01-15T05:24:48.723Z,12.07
2024-01-15T05:25:48.550Z,10.85
2024-01-15T05:26:48.546Z,11.31
2024-01-15T05:27:48.588Z,11.48
2024-01-15T05:28:48.528Z,11.71
2024-01-15T05:29:48.518Z,11.22
2024-01-15T05:30:48.543Z,11.85
2024-01-15T05:31:48.662Z,11.69
2024-01-15T05:32:48.506Z,12.26
2024-01-15T05:33:48.557Z,12.14
2024-01-15T05:34:48.634Z,11.04
2024-01-15T05:35:48.453Z,11.81
2024-01-15T05:36:48.473Z,12.33
2024-01-15T05:37:48.455Z,11.34
2024-01-15T05:38:48.441Z,12.97
2024-01-15T05:39:48.484Z,12.15
2024-01-15T05:40:48.420Z,11.80
2024-01-15T05:41:48.390Z,11.97
2024-01-15T05:42:48.574Z,11.65
2024-01-15T05:43:48.371Z,10.48
2024-01-15T05:44:48.358Z,11.51
2024-01-15T05:45:48.402Z,12.58
2024-01-15T05:46:48.360Z,11.96
2024-01-15T05:47:48.464Z,11.24
2024-01-15T05:48:48.441Z,11.76
2024-01-15T05:49:48.400Z,11.65
2024-01-15T05:50:48.297Z,11.58
2024-01-15T05:51:48.424Z,11.56
2024-01-15T05:52:48.524Z,11.57
2024-01-15T05:53:51.791Z,12.37
2024-01-15T05:54:48.339Z,11.80
2024-01-15T05:55:48.253Z,11.16
2024-01-15T05:56:48.257Z,11.91
2024-01-15T05:57:48.313Z,11.78
2024-01-15T05:58:48.218Z,11.85
2024-01-15T05:59:48.244Z,12.20
2024-01-15T06:00:48.265Z,11.23
2024-01-15T06:01:48.256Z,10.78
2024-01-15T06:02:48.182Z,10.89
2024-01-15T06:03:48.279Z,10.78
2024-01-15T06:04:48.201Z,11.99
2024-01-15T06:05:48.226Z,10.97
2024-01-15T06:06:48.203Z,11.93
2024-01-15T06:07:48.288Z,10.40
2024-01-15T06:08:48.125Z,11.84
2024-01-15T06:09:48.169Z,10.06
2024-01-15T06:10:48.107Z,11.01
2024-01-15T06:11:48.111Z,11.39
2024-01-15T06:12:48.091Z,12.06
2024-01-15T06:13:48.068Z,12.37
2024-01-15T06:14:48.052Z,11.75
2024-01-15T06:15:48.113Z,11.96
2024-01-15T06:16:48.063Z,10.53
2024-01-15T06:17:48.106Z,12.80
2024-01-15T06:18:48.218Z,12.15
2024-01-15T06:19:48.084Z,10.95
2024-01-15T06:20:48.006Z,13.34
2024-01-15T06:21:48.044Z,11.91
2024-01-15T06:22:48.768Z,12.63
2024-01-15T06:23:47.976Z,12.25
2024-01-15T06:24:48.063Z,12.08
2024-01-15T06:25:47.982Z,12.96
2024-01-15T06:26:47.948Z,12.17
2024-01-15T06:27:47.996Z,11.51
2024-01-15T06:28:47.922Z,13.32
2024-01-15T06:29:50.383Z,13.52
2024-01-15T06:30:47.938Z,13.02
2024-01-15T06:31:48.024Z,12.43
2024-01-15T06:32:47.955Z,12.16
2024-01-15T06:33:47.952Z,13.53
2024-01-15T06:34:47.977Z,11.34
2024-01-15T06:35:47.885Z,12.95
2024-01-15T06:36:47.925Z,12.52
2024-01-15T06:37:47.855Z,11.62
2024-01-15T06:38:47.836Z,13.89
2024-01-15T06:39:47.856Z,14.02
2024-01-15T06:40:49.061Z,12.77
2024-01-15T06:41:47.744Z,12.95
2024-01-15T06:42:47.882Z,13.09
2024-01-15T06:43:47.795Z,13.96
2024-01-15T06:44:47.729Z,14.06
2024-01-15T06:45:47.935Z,13.23
2024-01-15T06:46:47.714Z,14.08
2024-01-15T06:47:47.709Z,12.59
2024-01-15T06:48:47.803Z,13.67
2024-01-15T06:49:47.744Z,12.96
2024-01-15T06:50:47.700Z,13.49
2024-01-15T06:51:49.561Z,14.22
2024-01-15T06:52:47.628Z,13.62
2024-01-15T06:53:47.633Z,12.74
2024-01-15T06:54:47.632Z,13.75
2024-01-15T06:55:47.608Z,13.37
2024-01-15T06:56:47.599Z,14.37
2024-01-15T06:57:47.664Z,12.65
2024-01-15T06:58:47.594Z,13.16
2024-01-15T06:59:47.586Z,12.07
2024-01-15T07:00:47.632Z,13.39
2024-01-15T07:01:47.661Z,12.68
2024-01-15T07:02:47.550Z,14.23
2024-01-15T07:03:47.598Z,12.44
2024-01-15T07:04:47.598Z,12.97
2024-01-15T07:05:47.575Z,12.91
2024-01-15T07:06:47.545Z,14.32
2024-01-15T07:07:47.560Z,13.35
2024-01-15T07:08:47.487Z,12.74
2024-01-15T07:09:47.594Z,14.20
2024-01-15T07:10:47.474Z,12.81
2024-01-15T07:11:47.443Z,13.84
2024-01-15T07:12:47.601Z,13.20
2024-01-15T07:13:47.429Z,12.28
2024-01-15T07:14:47.426Z,12.59
2024-01-15T07:15:47.467Z,12.23
2024-01-15T07:16:48.820Z,12.91
2024-01-15T07:17:47.418Z,13.08
2024-01-15T07:18:47.470Z,12.78
2024-01-15T07:19:47.404Z,11.83
2024-01-15T07:20:47.377Z,12.51
2024-01-15T07:21:47.392Z,12.89
2024-01-15T07:22:48.174Z,11.72
2024-01-15T07:23:47.332Z,11.18
2024-01-15T07:24:47.353Z,11.24
2024-01-15T07:25:47.314Z,12.56
2024-01-15T07:26:47.459Z,11.65
2024-01-15T07:27:47.321Z,11.62
2024-01-15T07:28:47.289Z,11.97
2024-01-15T07:29:47.272Z,11.57
2024-01-15T07:30:47.430Z,11.48
2024-01-15T07:31:47.358Z,12.72
2024-01-15T07:32:47.311Z,12.02
2024-01-15T07:33:47.313Z,11.11
2024-01-15T07:34:47.465Z,11.04
2024-01-15T07:35:47.246Z,11.80
2024-01-15T07:36:47.235Z,12.84
2024-01-15T07:37:47.254Z,12.00
2024-01-15T07:38:47.201Z,12.90
2024-01-15T07:39:47.229Z,13.14
2024-01-15T07:40:47.184Z,12.47
2024-01-15T07:41:47.201Z,13.01
2024-01-15T07:42:47.167Z,12.63
2024-01-15T07:43:47.130Z,12.76
2024-01-15T07:44:47.151Z,14.12
2024-01-15T07:45:47.136Z,14.54
2024-01-15T07:46:47.136Z,13.74
2024-01-15T07:47:47.160Z,13.30
2024-01-15T07:48:47.232Z,14.86
2024-01-15T07:49:47.264Z,14.01
2024-01-15T07:50:47.064Z,12.71
2024-01-15T07:51:47.138Z,14.66
2024-01-15T07:52:47.052Z,14.62
2024-01-15T07:53:47.052Z,12.89
2024-01-15T07:54:47.119Z,13.80
2024-01-15T07:55:47.020Z,13.39
2024-01-15T07:56:47.012Z,13.91
2024-01-15T07:57:56.186Z,13.22
2024-01-15T07:58:47.044Z,13.87
2024-01-15T07:59:46.974Z,14.94
2024-01-15T08:00:47.242Z,14.51
2024-01-15T08:01:46.988Z,13.86
2024-01-15T08:02:46.957Z,12.68
2024-01-15T08:03:47.034Z,13.60
2024-01-15T08:04:46.967Z,14.25
2024-01-15T08:05:46.972Z,14.17
2024-01-15T08:06:46.929Z,14.47
2024-01-15T08:07:46.887Z,13.38
2024-01-15T08:08:46.909Z,14.41
2024-01-15T08:09:47.077Z,15.12
2024-01-15T08:10:46.866Z,14.57
2024-01-15T08:11:46.857Z,14.04
2024-01-15T08:12:46.907Z,14.96
2024-01-15T08:13:46.854Z,14.73
2024-01-15T08:14:46.825Z,14.06
2024-01-15T08:15:46.884Z,13.38
2024-01-15T08:16:46.812Z,13.87
2024-01-15T08:17:46.878Z,14.06
2024-01-15T08:18:46.897Z,13.48
2024-01-15T08:19:46.861Z,15.13
2024-01-15T08:20:46.812Z,13.27
2024-01-15T08:21:46.815Z,13.55
2024-01-15T08:22:46.783Z,13.11
2024-01-15T08:23:46.727Z,13.91
2024-01-15T08:24:46.781Z,13.91
2024-01-15T08:25:46.714Z,14.52
2024-01-15T08:26:46.741Z,14.75
2024-01-15T08:27:46.868Z,13.64
2024-01-15T08:28:46.686Z,14.38
2024-01-15T08:29:46.686Z,14.02
2024-01-15T08:30:46.810Z,13.77
2024-01-15T08:31:47.114Z,13.64
2024-01-15T08:32:46.691Z,14.03
2024-01-15T08:33:46.874Z,13.81
2024-01-15T08:34:46.702Z,13.54
2024-01-15T08:35:46.635Z,13.82
2024-01-15T08:36:46.664Z,13.34
2024-01-15T08:37:46.593Z,13.31
2024-01-15T08:38:46.659Z,13.35
2024-01-15T08:39:48.019Z,12.48
2024-01-15T08:40:46.606Z,12.70
2024-01-15T08:41:46.604Z,13.10
2024-01-15T08:42:46.717Z,13.12
2024-01-15T08:43:46.620Z,12.57
2024-01-15T08:45:01.172Z,14.20
2024-01-15T08:45:46.616Z,13.26
2024-01-15T08:46:46.524Z,12.34
2024-01-15T08:48:16.027Z,12.90
2024-01-15T08:48:46.571Z,13.08
2024-01-15T08:49:46.587Z,12.98
2024-01-15T08:50:46.509Z,12.74
2024-01-15T08:51:46.471Z,12.48
2024-01-15T08:52:46.447Z,13.11
2024-01-15T08:53:46.444Z,13.37
2024-01-15T08:54:46.523Z,13.18
2024-01-15T08:55:46.432Z,12.80
2024-01-15T08:56:46.404Z,13.27
2024-01-15T08:57:46.501Z,12.74
2024-01-15T08:58:46.448Z,13.34
2024-01-15T08:59:46.432Z,12.66
2024-01-15T09:00:46.427Z,13.01
2024-01-15T09:01:46.361Z,13.34
2024-01-15T09:02:46.382Z,13.50
2024-01-15T09:03:46.422Z,13.15
2024-01-15T09:04:46.421Z,13.94
2024-01-15T09:05:46.368Z,13.71
2024-01-15T09:06:46.335Z,14.84
2024-01-15T09:07:46.297Z,14.35
2024-01-15T09:08:46.318Z,15.09
2024-01-15T09:09:46.371Z,14.26
2024-01-15T09:10:46.280Z,13.32
2024-01-15T09:11:46.253Z,14.44
2024-01-15T09:12:46.255Z,14.81
2024-01-15T09:13:46.293Z,13.09
2024-01-15T09:14:46.250Z,15.01
2024-01-15T09:16:08.905Z,14.49
2024-01-15T09:16:46.210Z,14.24
2024-01-15T09:17:46.254Z,14.87
2024-01-15T09:18:46.309Z,14.86
2024-01-15T09:19:46.251Z,14.64
2024-01-15T09:20:46.176Z,13.67
2024-01-15T09:21:46.173Z,14.86
2024-01-15T09:22:46.148Z,14.11
2024-01-15T09:23:46.499Z,15.08
2024-01-15T09:24:46.171Z,14.83
2024-01-15T09:25:46.122Z,16.14
2024-01-15T09:26:46.096Z,14.10
2024-01-15T09:27:46.201Z,15.80
2024-01-15T09:28:46.131Z,15.83
2024-01-15T09:29:46.075Z,15.40
2024-01-15T09:30:46.281Z,14.76
2024-01-15T09:31:46.125Z,14.33
2024-01-15T09:32:46.140Z,15.42
2024-01-15T09:33:46.085Z,14.65
2024-01-15T09:34:46.071Z,15.32
2024-01-15T09:35:46.028Z,16.07
2024-01-15T09:36:46.183Z,14.89
2024-01-15T09:37:48.336Z,15.43
2024-01-15T09:38:45.989Z,15.20
2024-01-15T09:39:46.021Z,15.40
2024-01-15T09:40:45.963Z,15.19
2024-01-15T09:41:46.413Z,14.23
2024-01-15T09:42:46.345Z,14.84
2024-01-15T09:43:45.987Z,16.00
2024-01-15T09:44:45.918Z,15.53
2024-01-15T09:45:45.934Z,15.30
2024-01-15T09:46:45.920Z,15.76
2024-01-15T09:47:46.784Z,15.11
2024-01-15T09:48:45.956Z,14.54
2024-01-15T09:49:45.943Z,14.84
2024-01-15T09:50:45.859Z,14.59
2024-01-15T09:51:48.819Z,15.19
2024-01-15T09:52:45.889Z,13.96
2024-01-15T09:53:45.869Z,14.82
2024-01-15T09:54:47.799Z,14.13
2024-01-15T09:55:46.023Z,13.84
2024-01-15T09:56:45.813Z,14.04
2024-01-15T09:57:45.919Z,13.81
2024-01-15T09:58:45.815Z,13.87
2024-01-15T09:59:45.772Z,14.17
2024-01-15T10:00:45.796Z,13.28
2024-01-15T10:01:45.792Z,12.73
2024-01-15T10:02:45.748Z,13.59
2024-01-15T10:03:45.836Z,13.34
2024-01-15T10:04:45.786Z,14.19
2024-01-15T10:05:45.767Z,13.32
2024-01-15T10:06:45.833Z,13.43
2024-01-15T10:07:45.874Z,13.49
2024-01-15T10:08:45.685Z,13.96
2024-01-15T10:09:45.719Z,13.72
2024-01-15T10:10:45.657Z,13.77
2024-01-15T10:11:45.677Z,13.99
2024-01-15T10:12:45.681Z,13.10
2024-01-15T10:13:46.574Z,13.51
2024-01-15T10:14:45.644Z,15.16
2024-01-15T10:15:45.634Z,12.88
2024-01-15T10:16:45.620Z,14.35
2024-01-15T10:17:45.661Z,13.58
2024-01-15T10:18:45.692Z,14.21
2024-01-15T10:19:48.429Z,13.49
2024-01-15T10:20:45.564Z,13.17
2024-01-15T10:21:45.619Z,14.06
2024-01-15T10:22:45.533Z,12.95
2024-01-15T10:23:45.592Z,15.05
2024-01-15T10:24:45.617Z,13.68
2024-01-15T10:25:45.523Z,14.21
2024-01-15T10:26:45.507Z,15.17
2024-01-15T10:27:45.562Z,14.94
2024-01-15T10:28:45.516Z,14.37
2024-01-15T10:29:45.496Z,14.58
2024-01-15T10:30:45.529Z,14.63
2024-01-15T10:31:45.750Z,15.35
2024-01-15T10:32:45.463Z,14.24
2024-01-15T10:33:45.580Z,17.54
2024-01-15T10:34:45.557Z,14.40
2024-01-15T10:35:45.507Z,15.00
2024-01-15T10:36:45.441Z,17.86
2024-01-15T10:37:45.410Z,17.77
2024-01-15T10:38:45.407Z,16.96
2024-01-15T10:39:45.420Z,15.66
2024-01-15T10:40:45.368Z,15.02
2024-01-15T10:41:45.407Z,19.31
2024-01-15T10:42:45.411Z,16.33
2024-01-15T10:43:45.333Z,14.51
2024-01-15T10:44:45.322Z,14.31
2024-01-15T10:45:45.405Z,14.85
2024-01-15T10:46:45.306Z,15.76
2024-01-15T10:47:45.359Z,14.59
2024-01-15T10:48:45.365Z,14.34
2024-01-15T10:49:45.312Z,15.04
2024-01-15T10:50:45.275Z,25.40
2024-01-15T10:51:45.320Z,17.96
2024-01-15T10:52:45.257Z,15.37
2024-01-15T10:53:45.235Z,17.29
2024-01-15T10:54:45.244Z,26.30
2024-01-15T10:55:45.229Z,18.90
2024-01-15T10:56:45.223Z,19.64
2024-01-15T10:57:45.267Z,13.77
2024-01-15T10:58:45.173Z,14.33
2024-01-15T10:59:45.176Z,14.69
2024-01-15T11:00:45.279Z,14.72
2024-01-15T11:01:45.225Z,15.00
2024-01-15T11:02:45.135Z,13.74
2024-01-15T11:03:45.193Z,13.99
2024-01-15T11:04:45.220Z,13.64
2024-01-15T11:05:45.137Z,14.90
2024-01-15T11:06:45.255Z,14.48
2024-01-15T11:07:45.138Z,14.67
2024-01-15T11:08:45.083Z,14.83
2024-01-15T11:09:45.141Z,13.70
2024-01-15T11:10:45.088Z,14.89
2024-01-15T11:11:45.070Z,13.46
2024-01-15T11:12:45.055Z,13.38
2024-01-15T11:13:45.030Z,13.67
2024-01-15T11:14:45.348Z,15.29
2024-01-15T11:15:45.078Z,13.73
2024-01-15T11:16:44.997Z,12.88
2024-01-15T11:17:45.010Z,13.20
2024-01-15T11:18:45.060Z,14.14
2024-01-15T11:19:45.192Z,16.13
2024-01-15T11:20:44.980Z,14.29
2024-01-15T11:21:44.979Z,14.03
2024-01-15T11:22:44.941Z,13.76
2024-01-15T11:23:44.950Z,14.56
2024-01-15T11:24:44.960Z,14.55
2024-01-15T11:25:44.930Z,14.62
2024-01-15T11:26:44.900Z,14.92
2024-01-15T11:27:44.923Z,14.08
2024-01-15T11:28:44.889Z,14.37
2024-01-15T11:29:44.898Z,15.40
2024-01-15T11:30:44.954Z,15.09
2024-01-15T11:31:44.927Z,14.25
2024-01-15T11:32:45.019Z,14.43
2024-01-15T11:33:44.940Z,15.02
2024-01-15T11:34:44.937Z,14.21
2024-01-15T11:35:44.827Z,15.31
2024-01-15T11:36:44.866Z,14.20
2024-01-15T11:37:44.789Z,14.54
2024-01-15T11:38:44.810Z,14.32
2024-01-15T11:39:44.849Z,15.27
2024-01-15T11:40:44.779Z,14.22
2024-01-15T11:41:44.759Z,14.20
2024-01-15T11:42:44.779Z,14.26
2024-01-15T11:43:44.751Z,14.91
2024-01-15T11:44:44.763Z,15.14
2024-01-15T11:45:44.728Z,14.71
2024-01-15T11:46:44.718Z,14.55
2024-01-15T11:47:44.750Z,14.43
2024-01-15T11:48:44.879Z,14.47
2024-01-15T11:49:44.720Z,14.38
2024-01-15T11:50:44.677Z,14.43
2024-01-15T11:51:44.694Z,15.90
2024-01-15T11:52:44.665Z,14.66
2024-01-15T11:53:44.652Z,13.84
2024-01-15T11:54:44.702Z,15.12
2024-01-15T11:55:44.610Z,14.60
2024-01-15T11:56:44.608Z,14.79
2024-01-15T11:57:44.657Z,14.62
2024-01-15T11:58:44.600Z,14.14
2024-01-15T11:59:44.563Z,13.65
2024-01-15T12:00:44.730Z,15.90
2024-01-15T12:01:44.608Z,15.12
2024-01-15T12:02:44.601Z,14.79
2024-01-15T12:03:44.563Z,15.24
2024-01-15T12:04:44.592Z,14.24
2024-01-15T12:05:44.602Z,14.58
2024-01-15T12:06:44.614Z,15.00
2024-01-15T12:07:44.529Z,14.28
2024-01-15T12:08:44.485Z,14.24
2024-01-15T12:09:44.562Z,14.28
2024-01-15T12:10:44.473Z,14.49
2024-01-15T12:11:44.471Z,14.67
2024-01-15T12:12:44.516Z,13.74
2024-01-15T12:13:44.426Z,13.70
2024-01-15T12:14:44.422Z,15.51
2024-01-15T12:15:45.021Z,15.04
2024-01-15T12:16:44.419Z,14.56
2024-01-15T12:17:44.431Z,13.30
2024-01-15T12:18:44.492Z,13.83
2024-01-15T12:19:44.486Z,14.06
2024-01-15T12:20:44.415Z,14.09
2024-01-15T12:21:44.381Z,13.76
2024-01-15T12:22:53.414Z,14.09
2024-01-15T12:23:44.326Z,13.25
2024-01-15T12:24:44.331Z,15.03
2024-01-15T12:25:44.361Z,14.46
2024-01-15T12:26:44.323Z,13.16
2024-01-15T12:27:44.358Z,13.99
2024-01-15T12:28:44.308Z,12.96
2024-01-15T12:29:44.289Z,12.92
2024-01-15T12:30:44.376Z,13.99
2024-01-15T12:31:44.347Z,12.97
2024-01-15T12:32:44.271Z,12.91
2024-01-15T12:33:44.302Z,13.35
2024-01-15T12:34:44.301Z,13.87
2024-01-15T12:35:44.228Z,13.43
2024-01-15T12:36:44.212Z,14.32
2024-01-15T12:37:44.222Z,14.71
2024-01-15T12:38:44.211Z,15.09
2024-01-15T12:39:44.207Z,13.65
2024-01-15T12:40:46.148Z,12.90
2024-01-15T12:41:44.155Z,14.42
2024-01-15T12:42:44.301Z,13.78
2024-01-15T12:43:44.139Z,13.00
2024-01-15T12:44:44.146Z,8.96
2024-01-15T12:45:44.163Z,2.84
2024-01-15T12:46:44.109Z,2.69
2024-01-15T12:47:44.142Z,2.14
2024-01-15T12:48:44.181Z,2.69
2024-01-15T12:49:44.164Z,2.19
2024-01-15T12:50:44.077Z,2.68
2024-01-15T12:51:44.088Z,2.08
2024-01-15T12:52:44.058Z,1.95
2024-01-15T12:53:44.054Z,2.27